• Join FlightAware (Why Join?)
  • Login
  • US Flag 
02:59PM EDT


 

Airport Tracker/Info


-or-


 

Live Flight TrackerFlight Track Log ✈ AAY1029 ✈ 18-Sep-2013 ✈ KOAK - KBLI

Flight Track Log - Related Links

Times and Time Zones

All times are in EDT time to prevent confusion due to time zone crossing. See the AAY1029 flight status page for this flight to view local times or setup timezone preferences in your user account.

Time Position Orientation Groundspeed Altitude Reporting Facility
EDT Latitude Longitude Course Direction KTS MPH feet Rate Location/Type
02:42PM 37.7253 -122.2503 287° West 154 177 1,100  Level Oakland Center
02:43PM 37.7333 -122.2833 287° West 188 216 2,000 1,920 Climbing Northern Cal TRACON
02:45PM 37.8244 -122.2994 352° North 240 276 5,100 2,400 Climbing Oakland Center
02:46PM 37.8978 -122.3042 357° North 261 300 8,200 2,580 Climbing Oakland Center
02:47PM 37.9744 -122.3053 359° North 274 315 10,500 1,440 Climbing Oakland Center
02:48PM 38.0667 -122.2786 13° North 335 386 11,200 2,040 Climbing Oakland Center
02:49PM 38.1928 -122.2381 14° North 386 444 14,700 2,700 Climbing Oakland Center
02:50PM 38.3047 -122.2378 360° North 401 461 16,800 2,160 Climbing Oakland Center
02:51PM 38.4181 -122.2339 North 408 470 19,200 2,100 Climbing Oakland Center
02:52PM 38.5342 -122.2361 359° North 414 476 21,200 1,680 Climbing Oakland Center
02:53PM 38.6528 -122.2339 North 423 487 22,700 1,680 Climbing Oakland Center
02:54PM 38.7833 -122.2367 359° North 438 504 24,700 1,920 Climbing Oakland Center
02:55PM 38.9033 -122.2344 North 433 498 26,700 2,100 Climbing Oakland Center
02:56PM 39.0222 -122.2392 358° North 426 490 29,100 1,740 Climbing Oakland Center
02:57PM 39.1364 -122.2358 North 412 474 30,300 1,200 Climbing Oakland Center
02:58PM 39.2503 -122.2392 359° North 409 471 31,600 1,260 Climbing Oakland Center
02:59PM 39.3622 -122.2389 360° North 405 466 32,900 960 Climbing Oakland Center
03:00PM 39.4864 -122.2397 360° North 401 461 33,600 480 Climbing Oakland Center
03:01PM 39.5975 -122.2419 359° North 400 460 34,000 180 Climbing Oakland Center
03:02PM 39.7086 -122.2314 North 400 460 34,000  Level Oakland Center
03:03PM 39.8192 -122.2417 356° North 398 458 34,000  Level Oakland Center
03:04PM 39.9525 -122.2375 North 400 460 34,000  Level Oakland Center
03:05PM 40.0631 -122.2403 359° North 401 461 34,000 -60 Level Oakland Center
03:06PM 40.1769 -122.2372 North 406 467 33,900  Descending Oakland Center
03:07PM 40.2803 -122.2453 357° North 420 483 34,000  Climbing Oakland Center
03:08PM 40.4142 -122.2406 North 409 471 34,000  Level Oakland Center
03:09PM 40.5222 -122.2481 357° North 396 456 34,000  Level Oakland Center
03:10PM 40.6339 -122.2400 North 402 463 34,000  Level Oakland Center
03:11PM 40.7422 -122.2472 357° North 393 452 34,000  Level Oakland Center
03:13PM 40.9175 -122.2497 359° North 393 452 34,000  Level Seattle Center
03:14PM 41.0275 -122.2469 North 397 457 34,000  Level Seattle Center
03:15PM 41.1600 -122.2517 358° North 397 457 34,000  Level Seattle Center
03:16PM 41.2722 -122.2475 North 404 465 34,000  Level Seattle Center
03:17PM 41.3825 -122.2536 358° North 398 458 34,000  Level Seattle Center
03:18PM 41.4817 -122.2503 North 400 460 34,000  Level Seattle Center
03:19PM 41.5922 -122.2522 359° North 398 458 34,000  Level Seattle Center
03:20PM 41.7250 -122.2489 North 399 459 34,000  Level Seattle Center
03:21PM 41.8353 -122.2533 358° North 397 457 34,000  Level Seattle Center
03:22PM 41.9469 -122.2489 North 398 458 34,000  Level Seattle Center
03:23PM 42.0575 -122.2544 358° North 392 451 34,000  Level Seattle Center
03:24PM 42.1683 -122.2494 North 394 453 34,000  Level Seattle Center
03:25PM 42.2783 -122.2544 358° North 392 451 34,000  Level Seattle Center
03:26PM 42.3889 -122.2508 North 395 455 34,000  Level Seattle Center
03:27PM 42.4997 -122.2544 359° North 397 457 34,000  Level Seattle Center
03:28PM 42.6103 -122.2522 North 397 457 34,000  Level Seattle Center
03:29PM 42.7211 -122.2522 360° North 398 458 34,000  Level Seattle Center
03:30PM 42.8444 -122.2531 360° North 395 455 34,000  Level Seattle Center
03:31PM 42.9558 -122.2556 359° North 398 458 34,000  Level Seattle Center
03:32PM 43.0658 -122.2567 360° North 397 457 34,000  Level Seattle Center
03:33PM 43.1775 -122.2531 North 399 459 34,000  Level Seattle Center
03:34PM 43.2864 -122.2594 358° North 394 453 34,000  Level Seattle Center
03:35PM 43.3981 -122.2531 North 399 459 34,000  Level Seattle Center
03:36PM 43.5069 -122.2611 357° North 396 456 34,000  Level Seattle Center
03:37PM 43.6186 -122.2556 North 401 461 34,000  Level Seattle Center
03:38PM 43.7272 -122.2619 358° North 396 456 34,000  Level Seattle Center
03:39PM 43.8378 -122.2553 North 400 460 34,000  Level Seattle Center
03:40PM 43.9683 -122.2628 358° North 395 455 34,000  Level Seattle Center
03:41PM 44.0783 -122.2569 North 397 457 34,000  Level Seattle Center
03:42PM 44.1850 -122.2644 357° North 388 447 34,000  Level Seattle Center
03:44PM 44.3055 -122.2646 360° North  Level FlightAware Approximate
03:48PM 44.7200 -122.2628 360° North 385 443 34,000  Level Seattle Center
03:49PM 44.8272 -122.2686 358° North 385 443 34,000  Level Seattle Center
03:50PM 44.9486 -122.2625 North 379 436 34,000  Level Seattle Center
03:51PM 45.0844 -122.2655 360° North  Level FlightAware Approximate
03:51PM 45.0542 -122.2692 357° North 380 437 34,000  Level Seattle Center
03:52PM 45.1957 -122.2657 360° North  Level FlightAware Approximate
03:52PM 45.1631 -122.2647 North 389 448 34,000  Level Seattle Center
03:53PM 45.3048 -122.2658 360° North  Level FlightAware Approximate
03:53PM 45.2686 -122.2706 358° North 385 443 34,000  Level Seattle Center
03:54PM 45.3756 -122.2647 North 386 444 34,000  Level Seattle Center
03:55PM 45.4811 -122.2708 358° North 383 441 34,000  Level Seattle Center
03:56PM 45.5858 -122.2650 North 379 436 34,000  Level Seattle Center
03:57PM 45.6908 -122.2708 358° North 378 435 34,000 -60 Level Seattle Center
03:58PM 45.7950 -122.2678 North 378 435 33,900  Descending Seattle Center
03:59PM 45.9200 -122.2714 359° North 375 432 34,000  Climbing Seattle Center
04:00PM 46.0253 -122.2678 North 379 436 34,000  Level Seattle Center
04:01PM 46.1294 -122.2717 359° North 376 433 34,000  Level Seattle Center
04:02PM 46.2342 -122.2689 North 378 435 34,000  Level Seattle Center
04:03PM 46.3369 -122.2711 359° North 373 429 34,000  Level Seattle Center
04:04PM 46.4406 -122.2708 360° North 374 430 34,000  Level Seattle Center
04:05PM 46.5453 -122.2708 360° North 378 435 34,000  Level Seattle Center
04:06PM 46.6481 -122.2747 359° North 371 427 34,000  Level Seattle Center
04:07PM 46.7519 -122.2689 North 373 429 34,000  Level Seattle Center
04:08PM 46.8533 -122.2750 358° North 366 421 34,000  Level Seattle Center
04:09PM 46.9764 -122.2706 North 369 425 34,000  Level Seattle Center
04:10PM 47.0783 -122.2781 357° North 367 422 34,000  Level Seattle Center
04:11PM 47.1825 -122.2697 North 373 429 34,000  Level Seattle Center
04:12PM 47.2844 -122.2778 357° North 368 423 34,000 -840 Level Seattle Center
04:13PM 47.3883 -122.2711 North 373 429 32,400 -1,920 Descending Seattle Center
04:14PM 47.4889 -122.2800 357° North 363 418 30,100 -2,340 Descending Seattle Center
04:15PM 47.5825 -122.2772 North 365 420 27,700 -2,760 Descending Seattle Center
04:16PM 47.7028 -122.2811 359° North 363 418 24,600 -2,580 Descending Seattle Center
04:17PM 47.8031 -122.2769 North 363 418 22,500 -2,100 Descending Seattle Center
04:18PM 47.8975 -122.2772 360° North 344 396 20,400 -2,280 Descending Seattle Center
04:19PM 47.9986 -122.3075 349° North 342 394 17,900 -2,100 Descending Seattle Center
04:20PM 48.0761 -122.3233 352° North 331 381 16,400 -1,680 Descending Seattle Center
04:20PM 48.0889 -122.3275 348° North 331 381 16,200 -1,800 Descending Seattle Center
04:21PM 48.1633 -122.3494 349° North 322 371 14,600 -1,920 Descending Seattle Center
04:21PM 48.1761 -122.3542 346° North 323 372 14,300 -2,220 Descending Seattle Center
04:22PM 48.2489 -122.3697 352° North 316 364 12,400 -2,100 Descending Seattle Center
04:22PM 48.2622 -122.3742 347° North 316 364 12,200 -1,800 Descending Seattle Center
04:23PM 48.3378 -122.4017 346° North 307 353 10,600 -1,620 Descending Seattle Center
04:23PM 48.3367 -122.4017 180° South 306 352 10,600 -1,320 Level Seattle Center
04:24PM 48.4142 -122.4211 351° North 278 320 9,300 -1,320 Descending Seattle Center
04:24PM 48.4169 -122.4194 22° Northeast 286 329 9,300 -1,200 Level Seattle Center
04:25PM 48.4867 -122.4425 348° North 263 303 8,100 -1,200 Descending Seattle Center
04:25PM 48.4894 -122.4436 345° North 279 321 8,100 -1,140 Level Seattle Center
04:26PM 48.5558 -122.4594 351° North 223 257 7,000 -1,380 Descending Seattle Center
04:26PM 48.5669 -122.4636 346° North 260 299 6,700 -1,200 Descending Seattle Center
04:27PM 48.6133 -122.4850 343° North 246 283 5,600 -1,500 Descending Seattle Center
04:29PM 48.6833 -122.5667 322° Northwest 220 253 3,100 -1,500 Descending Vancouver Center
04:30PM 48.7500 -122.5667 360° North 220 253 2,000 -600 Descending Vancouver Center
04:31PM 48.8000 -122.5833 348° North 210 242 2,000 -180 Level Vancouver Center
04:32PM 48.8500 -122.5833 360° North 180 207 1,700 -540 Descending Vancouver Center
04:33PM 48.8333 -122.5333 117° Southeast 150 173 1,000 -720 Descending Vancouver Center
04:34PM 48.8000 -122.5333 180° South 130 150 300 -720 Descending Vancouver Center